sensor_id;sensor_type;location;lat;lon;timestamp;temperature;humidity
12847;DHT22;6492;48.128;8.320;2023-05-23T00:00:40;11.60;79.00
12847;DHT22;6492;48.128;8.320;2023-05-23T00:04:42;11.60;79.00
12847;DHT22;6492;48.128;8.320;2023-05-23T00:08:45;11.50;79.00
12847;DHT22;6492;48.128;8.320;2023-05-23T00:12:47;11.40;79.00
12847;DHT22;6492;48.128;8.320;2023-05-23T00:16:49;11.30;79.00
12847;DHT22;6492;48.128;8.320;2023-05-23T00:20:51;11.20;79.00
12847;DHT22;6492;48.128;8.320;2023-05-23T00:24:54;11.20;79.50
12847;DHT22;6492;48.128;8.320;2023-05-23T00:28:57;11.20;80.00
12847;DHT22;6492;48.128;8.320;2023-05-23T00:33:07;11.10;80.10
12847;DHT22;6492;48.128;8.320;2023-05-23T00:37:09;11.10;80.40
12847;DHT22;6492;48.128;8.320;2023-05-23T00:41:12;11.10;81.20
12847;DHT22;6492;48.128;8.320;2023-05-23T00:45:14;11.00;80.40
12847;DHT22;6492;48.128;8.320;2023-05-23T00:49:17;10.90;80.50
12847;DHT22;6492;48.128;8.320;2023-05-23T00:53:19;10.90;80.80
12847;DHT22;6492;48.128;8.320;2023-05-23T00:57:23;10.90;81.20
12847;DHT22;6492;48.128;8.320;2023-05-23T01:01:25;11.00;81.70
12847;DHT22;6492;48.128;8.320;2023-05-23T01:05:27;11.00;82.10
12847;DHT22;6492;48.128;8.320;2023-05-23T01:09:29;11.10;82.40
12847;DHT22;6492;48.128;8.320;2023-05-23T01:13:39;11.00;82.10
12847;DHT22;6492;48.128;8.320;2023-05-23T01:17:47;11.00;82.00
12847;DHT22;6492;48.128;8.320;2023-05-23T01:21:52;11.30;82.40
12847;DHT22;6492;48.128;8.320;2023-05-23T01:26:12;11.10;82.40
12847;DHT22;6492;48.128;8.320;2023-05-23T01:30:20;11.00;82.60
12847;DHT22;6492;48.128;8.320;2023-05-23T01:34:23;11.00;82.70
12847;DHT22;6492;48.128;8.320;2023-05-23T01:38:25;11.00;82.70
12847;DHT22;6492;48.128;8.320;2023-05-23T01:42:27;11.00;82.70
12847;DHT22;6492;48.128;8.320;2023-05-23T01:46:32;10.90;82.80
12847;DHT22;6492;48.128;8.320;2023-05-23T01:50:34;10.90;82.80
12847;DHT22;6492;48.128;8.320;2023-05-23T01:54:37;10.90;83.10
12847;DHT22;6492;48.128;8.320;2023-05-23T01:58:41;10.90;83.10
12847;DHT22;6492;48.128;8.320;2023-05-23T02:02:45;11.00;83.40
12847;DHT22;6492;48.128;8.320;2023-05-23T02:06:47;11.10;83.70
12847;DHT22;6492;48.128;8.320;2023-05-23T02:10:49;11.10;83.90
12847;DHT22;6492;48.128;8.320;2023-05-23T02:14:53;11.10;84.00
12847;DHT22;6492;48.128;8.320;2023-05-23T02:18:56;11.20;84.10
12847;DHT22;6492;48.128;8.320;2023-05-23T02:22:58;11.30;84.30
12847;DHT22;6492;48.128;8.320;2023-05-23T02:27:00;11.30;84.40
12847;DHT22;6492;48.128;8.320;2023-05-23T02:31:02;11.40;84.50
12847;DHT22;6492;48.128;8.320;2023-05-23T02:35:06;11.50;84.70
12847;DHT22;6492;48.128;8.320;2023-05-23T02:39:09;11.60;84.70
12847;DHT22;6492;48.128;8.320;2023-05-23T02:43:11;11.70;84.80
12847;DHT22;6492;48.128;8.320;2023-05-23T02:47:13;11.70;84.80
12847;DHT22;6492;48.128;8.320;2023-05-23T02:51:16;11.80;84.90
12847;DHT22;6492;48.128;8.320;2023-05-23T02:55:19;11.80;84.90
12847;DHT22;6492;48.128;8.320;2023-05-23T02:59:21;11.80;84.90
12847;DHT22;6492;48.128;8.320;2023-05-23T03:03:23;11.90;85.10
12847;DHT22;6492;48.128;8.320;2023-05-23T03:07:26;11.90;85.10
12847;DHT22;6492;48.128;8.320;2023-05-23T03:11:27;12.00;85.20
12847;DHT22;6492;48.128;8.320;2023-05-23T03:15:30;12.00;85.20
12847;DHT22;6492;48.128;8.320;2023-05-23T03:19:32;12.00;85.20
12847;DHT22;6492;48.128;8.320;2023-05-23T03:24:05;12.00;85.20
12847;DHT22;6492;48.128;8.320;2023-05-23T03:28:07;12.10;85.40
12847;DHT22;6492;48.128;8.320;2023-05-23T03:32:08;12.10;85.40
12847;DHT22;6492;48.128;8.320;2023-05-23T03:36:10;12.20;85.40
12847;DHT22;6492;48.128;8.320;2023-05-23T03:40:14;12.20;85.50
12847;DHT22;6492;48.128;8.320;2023-05-23T03:44:15;12.20;85.40
12847;DHT22;6492;48.128;8.320;2023-05-23T03:48:17;12.30;85.70
12847;DHT22;6492;48.128;8.320;2023-05-23T03:52:19;12.30;85.70
12847;DHT22;6492;48.128;8.320;2023-05-23T03:56:22;12.30;85.70
12847;DHT22;6492;48.128;8.320;2023-05-23T04:00:24;12.40;85.70
12847;DHT22;6492;48.128;8.320;2023-05-23T04:04:26;12.50;85.80
12847;DHT22;6492;48.128;8.320;2023-05-23T04:08:28;12.50;85.80
12847;DHT22;6492;48.128;8.320;2023-05-23T04:12:34;12.60;85.90
12847;DHT22;6492;48.128;8.320;2023-05-23T04:16:36;12.60;85.90
12847;DHT22;6492;48.128;8.320;2023-05-23T04:20:41;12.70;86.00
12847;DHT22;6492;48.128;8.320;2023-05-23T04:24:43;12.80;86.10
12847;DHT22;6492;48.128;8.320;2023-05-23T04:28:46;12.80;86.10
12847;DHT22;6492;48.128;8.320;2023-05-23T04:32:48;12.80;86.20
12847;DHT22;6492;48.128;8.320;2023-05-23T04:36:50;12.90;86.20
12847;DHT22;6492;48.128;8.320;2023-05-23T04:40:54;12.90;86.30
12847;DHT22;6492;48.128;8.320;2023-05-23T04:44:58;13.00;87.00
12847;DHT22;6492;48.128;8.320;2023-05-23T04:49:01;13.00;86.30
12847;DHT22;6492;48.128;8.320;2023-05-23T04:53:14;13.10;86.40
12847;DHT22;6492;48.128;8.320;2023-05-23T04:57:16;13.20;86.40
12847;DHT22;6492;48.128;8.320;2023-05-23T05:01:19;13.30;86.60
12847;DHT22;6492;48.128;8.320;2023-05-23T05:05:23;13.30;86.50
12847;DHT22;6492;48.128;8.320;2023-05-23T05:09:25;13.50;86.70
12847;DHT22;6492;48.128;8.320;2023-05-23T05:13:27;13.70;86.90
12847;DHT22;6492;48.128;8.320;2023-05-23T05:17:30;13.70;86.80
12847;DHT22;6492;48.128;8.320;2023-05-23T05:21:36;13.80;86.90
12847;DHT22;6492;48.128;8.320;2023-05-23T05:25:40;14.00;87.00
12847;DHT22;6492;48.128;8.320;2023-05-23T05:29:41;14.40;87.30
12847;DHT22;6492;48.128;8.320;2023-05-23T05:33:44;14.70;87.40
12847;DHT22;6492;48.128;8.320;2023-05-23T05:37:46;14.90;86.90
12847;DHT22;6492;48.128;8.320;2023-05-23T05:41:48;14.90;83.20
12847;DHT22;6492;48.128;8.320;2023-05-23T05:45:50;14.90;78.60
12847;DHT22;6492;48.128;8.320;2023-05-23T05:50:13;14.80;75.70
12847;DHT22;6492;48.128;8.320;2023-05-23T05:54:15;14.70;74.40
12847;DHT22;6492;48.128;8.320;2023-05-23T05:58:17;14.70;73.70
12847;DHT22;6492;48.128;8.320;2023-05-23T06:02:18;14.70;72.20
12847;DHT22;6492;48.128;8.320;2023-05-23T06:06:21;14.70;71.20
12847;DHT22;6492;48.128;8.320;2023-05-23T06:10:23;14.70;70.20
12847;DHT22;6492;48.128;8.320;2023-05-23T06:14:25;14.60;66.80
12847;DHT22;6492;48.128;8.320;2023-05-23T06:18:27;14.60;64.10
12847;DHT22;6492;48.128;8.320;2023-05-23T06:22:30;14.60;63.00
12847;DHT22;6492;48.128;8.320;2023-05-23T06:26:32;14.60;63.30
12847;DHT22;6492;48.128;8.320;2023-05-23T06:30:34;14.70;62.10
12847;DHT22;6492;48.128;8.320;2023-05-23T06:34:37;14.80;60.60
12847;DHT22;6492;48.128;8.320;2023-05-23T06:38:40;14.80;58.90
12847;DHT22;6492;48.128;8.320;2023-05-23T06:42:42;14.80;59.50
12847;DHT22;6492;48.128;8.320;2023-05-23T06:46:55;14.90;59.10
12847;DHT22;6492;48.128;8.320;2023-05-23T06:50:58;15.00;57.30
12847;DHT22;6492;48.128;8.320;2023-05-23T06:55:01;15.10;55.90
12847;DHT22;6492;48.128;8.320;2023-05-23T06:59:04;15.40;55.60
12847;DHT22;6492;48.128;8.320;2023-05-23T07:03:06;15.80;53.60
12847;DHT22;6492;48.128;8.320;2023-05-23T07:07:08;16.00;51.50
12847;DHT22;6492;48.128;8.320;2023-05-23T07:11:11;16.30;49.00
12847;DHT22;6492;48.128;8.320;2023-05-23T07:15:13;17.10;44.20
12847;DHT22;6492;48.128;8.320;2023-05-23T07:19:15;17.90;38.90
12847;DHT22;6492;48.128;8.320;2023-05-23T07:23:17;18.70;28.90
12847;DHT22;6492;48.128;8.320;2023-05-23T07:27:20;19.70;23.30
12847;DHT22;6492;48.128;8.320;2023-05-23T07:31:22;20.40;18.90
12847;DHT22;6492;48.128;8.320;2023-05-23T07:35:24;20.40;17.90
12847;DHT22;6492;48.128;8.320;2023-05-23T07:39:26;20.10;18.40
12847;DHT22;6492;48.128;8.320;2023-05-23T07:43:29;19.90;18.90
12847;DHT22;6492;48.128;8.320;2023-05-23T07:47:30;21.00;18.90
12847;DHT22;6492;48.128;8.320;2023-05-23T07:51:33;22.30;10.50
12847;DHT22;6492;48.128;8.320;2023-05-23T07:55:34;23.20;7.60
12847;DHT22;6492;48.128;8.320;2023-05-23T07:59:38;23.50;6.50
12847;DHT22;6492;48.128;8.320;2023-05-23T08:03:40;23.90;5.30
12847;DHT22;6492;48.128;8.320;2023-05-23T08:07:42;24.20;4.30
12847;DHT22;6492;48.128;8.320;2023-05-23T08:11:43;24.10;3.40
12847;DHT22;6492;48.128;8.320;2023-05-23T08:15:46;22.90;5.40
12847;DHT22;6492;48.128;8.320;2023-05-23T08:19:48;22.30;7.90
12847;DHT22;6492;48.128;8.320;2023-05-23T08:23:50;22.80;5.90
12847;DHT22;6492;48.128;8.320;2023-05-23T08:27:52;22.50;3.80
12847;DHT22;6492;48.128;8.320;2023-05-23T08:31:55;21.70;6.00
12847;DHT22;6492;48.128;8.320;2023-05-23T08:35:57;20.80;8.40
12847;DHT22;6492;48.128;8.320;2023-05-23T08:39:58;20.20;12.10
12847;DHT22;6492;48.128;8.320;2023-05-23T08:44:00;20.70;9.30
12847;DHT22;6492;48.128;8.320;2023-05-23T08:48:07;20.70;8.10
12847;DHT22;6492;48.128;8.320;2023-05-23T08:52:12;20.70;12.10
12847;DHT22;6492;48.128;8.320;2023-05-23T08:56:15;20.90;11.70
12847;DHT22;6492;48.128;8.320;2023-05-23T09:00:18;20.60;12.10
12847;DHT22;6492;48.128;8.320;2023-05-23T09:04:21;20.30;12.20
12847;DHT22;6492;48.128;8.320;2023-05-23T09:08:24;19.80;13.30
12847;DHT22;6492;48.128;8.320;2023-05-23T09:12:26;19.40;14.30
12847;DHT22;6492;48.128;8.320;2023-05-23T09:16:31;19.40;16.40
12847;DHT22;6492;48.128;8.320;2023-05-23T09:20:39;19.50;16.50
12847;DHT22;6492;48.128;8.320;2023-05-23T09:24:41;20.10;14.30
12847;DHT22;6492;48.128;8.320;2023-05-23T09:28:44;20.80;12.00
12847;DHT22;6492;48.128;8.320;2023-05-23T09:32:57;21.50;8.90
12847;DHT22;6492;48.128;8.320;2023-05-23T09:37:02;22.00;6.10
12847;DHT22;6492;48.128;8.320;2023-05-23T09:41:04;22.20;6.80
12847;DHT22;6492;48.128;8.320;2023-05-23T09:45:07;22.20;6.30
12847;DHT22;6492;48.128;8.320;2023-05-23T09:49:16;22.00;5.00
12847;DHT22;6492;48.128;8.320;2023-05-23T09:53:19;22.20;4.90
12847;DHT22;6492;48.128;8.320;2023-05-23T09:57:23;22.10;5.30
12847;DHT22;6492;48.128;8.320;2023-05-23T10:01:25;21.60;5.90
12847;DHT22;6492;48.128;8.320;2023-05-23T10:05:32;21.20;9.00
12847;DHT22;6492;48.128;8.320;2023-05-23T10:09:37;21.50;6.60
12847;DHT22;6492;48.128;8.320;2023-05-23T10:13:41;21.90;6.00
12847;DHT22;6492;48.128;8.320;2023-05-23T10:17:56;22.30;3.60
12847;DHT22;6492;48.128;8.320;2023-05-23T10:22:03;22.60;4.70
12847;DHT22;6492;48.128;8.320;2023-05-23T10:26:09;22.50;3.50
12847;DHT22;6492;48.128;8.320;2023-05-23T10:30:12;21.70;5.40
12847;DHT22;6492;48.128;8.320;2023-05-23T10:34:19;20.90;7.00
12847;DHT22;6492;48.128;8.320;2023-05-23T10:38:36;21.00;7.60
12847;DHT22;6492;48.128;8.320;2023-05-23T10:42:48;21.60;8.20
12847;DHT22;6492;48.128;8.320;2023-05-23T10:46:54;22.20;4.00
12847;DHT22;6492;48.128;8.320;2023-05-23T10:51:02;22.10;3.90
12847;DHT22;6492;48.128;8.320;2023-05-23T10:55:11;22.40;4.30
12847;DHT22;6492;48.128;8.320;2023-05-23T10:59:21;22.70;4.20
12847;DHT22;6492;48.128;8.320;2023-05-23T11:03:30;22.40;4.30
12847;DHT22;6492;48.128;8.320;2023-05-23T11:07:33;22.30;4.20
12847;DHT22;6492;48.128;8.320;2023-05-23T11:11:59;22.30;5.30
12847;DHT22;6492;48.128;8.320;2023-05-23T11:20:37;22.30;4.20
12847;DHT22;6492;48.128;8.320;2023-05-23T11:24:49;21.90;3.90
12847;DHT22;6492;48.128;8.320;2023-05-23T11:28:57;21.70;4.60
12847;DHT22;6492;48.128;8.320;2023-05-23T11:32:59;21.60;3.70
12847;DHT22;6492;48.128;8.320;2023-05-23T11:37:03;21.40;6.40
12847;DHT22;6492;48.128;8.320;2023-05-23T11:41:05;21.30;7.10
12847;DHT22;6492;48.128;8.320;2023-05-23T11:45:08;21.30;8.00
12847;DHT22;6492;48.128;8.320;2023-05-23T11:49:10;21.20;7.10
12847;DHT22;6492;48.128;8.320;2023-05-23T11:53:14;21.50;9.50
12847;DHT22;6492;48.128;8.320;2023-05-23T11:57:18;22.30;6.50
12847;DHT22;6492;48.128;8.320;2023-05-23T12:01:20;22.50;4.70
12847;DHT22;6492;48.128;8.320;2023-05-23T12:05:21;22.50;3.80
12847;DHT22;6492;48.128;8.320;2023-05-23T12:09:25;22.40;4.40
12847;DHT22;6492;48.128;8.320;2023-05-23T12:13:28;22.30;6.10
12847;DHT22;6492;48.128;8.320;2023-05-23T12:17:30;22.50;5.70
12847;DHT22;6492;48.128;8.320;2023-05-23T12:21:43;23.20;2.90
12847;DHT22;6492;48.128;8.320;2023-05-23T12:25:49;23.90;3.30
12847;DHT22;6492;48.128;8.320;2023-05-23T12:29:54;24.40;1.00
12847;DHT22;6492;48.128;8.320;2023-05-23T12:34:04;24.30;1.00
12847;DHT22;6492;48.128;8.320;2023-05-23T12:38:06;23.30;2.90
12847;DHT22;6492;48.128;8.320;2023-05-23T12:42:10;23.00;3.20
12847;DHT22;6492;48.128;8.320;2023-05-23T12:46:12;22.80;3.20
12847;DHT22;6492;48.128;8.320;2023-05-23T12:50:13;22.10;4.50
12847;DHT22;6492;48.128;8.320;2023-05-23T12:54:16;21.40;4.90
12847;DHT22;6492;48.128;8.320;2023-05-23T12:58:19;21.50;4.60
12847;DHT22;6492;48.128;8.320;2023-05-23T13:02:21;21.80;4.50
12847;DHT22;6492;48.128;8.320;2023-05-23T13:06:23;22.40;2.70
12847;DHT22;6492;48.128;8.320;2023-05-23T13:10:25;22.80;2.00
12847;DHT22;6492;48.128;8.320;2023-05-23T13:14:28;23.30;2.50
12847;DHT22;6492;48.128;8.320;2023-05-23T13:18:30;23.90;1.00
12847;DHT22;6492;48.128;8.320;2023-05-23T13:22:32;24.00;1.00
12847;DHT22;6492;48.128;8.320;2023-05-23T13:26:34;23.70;1.00
12847;DHT22;6492;48.128;8.320;2023-05-23T13:30:37;23.60;1.00
12847;DHT22;6492;48.128;8.320;2023-05-23T13:34:39;23.40;1.00
12847;DHT22;6492;48.128;8.320;2023-05-23T13:38:41;23.30;1.00
12847;DHT22;6492;48.128;8.320;2023-05-23T13:42:43;23.50;1.00
12847;DHT22;6492;48.128;8.320;2023-05-23T13:46:46;23.60;1.00
12847;DHT22;6492;48.128;8.320;2023-05-23T13:50:48;23.60;1.00
12847;DHT22;6492;48.128;8.320;2023-05-23T13:54:50;23.80;1.00
12847;DHT22;6492;48.128;8.320;2023-05-23T13:58:53;23.70;1.00
12847;DHT22;6492;48.128;8.320;2023-05-23T14:02:56;23.40;1.00
12847;DHT22;6492;48.128;8.320;2023-05-23T14:06:57;23.40;1.00
12847;DHT22;6492;48.128;8.320;2023-05-23T14:10:59;23.40;1.00
12847;DHT22;6492;48.128;8.320;2023-05-23T14:15:01;23.00;1.00
12847;DHT22;6492;48.128;8.320;2023-05-23T14:19:04;22.90;1.00
12847;DHT22;6492;48.128;8.320;2023-05-23T14:23:06;23.10;1.00
12847;DHT22;6492;48.128;8.320;2023-05-23T14:27:08;24.00;1.00
12847;DHT22;6492;48.128;8.320;2023-05-23T14:31:28;24.60;1.00
12847;DHT22;6492;48.128;8.320;2023-05-23T14:35:31;25.00;1.00
12847;DHT22;6492;48.128;8.320;2023-05-23T14:39:33;25.30;1.00
12847;DHT22;6492;48.128;8.320;2023-05-23T14:43:35;24.80;1.00
12847;DHT22;6492;48.128;8.320;2023-05-23T14:47:38;23.70;1.00
12847;DHT22;6492;48.128;8.320;2023-05-23T14:51:41;23.00;1.00
12847;DHT22;6492;48.128;8.320;2023-05-23T14:55:52;22.20;1.80
12847;DHT22;6492;48.128;8.320;2023-05-23T14:59:54;21.30;4.10
12847;DHT22;6492;48.128;8.320;2023-05-23T15:03:56;20.50;6.10
12847;DHT22;6492;48.128;8.320;2023-05-23T15:08:05;20.00;7.40
12847;DHT22;6492;48.128;8.320;2023-05-23T15:12:07;19.60;9.00
12847;DHT22;6492;48.128;8.320;2023-05-23T15:20:55;19.00;11.10
12847;DHT22;6492;48.128;8.320;2023-05-23T15:25:11;18.70;11.50
12847;DHT22;6492;48.128;8.320;2023-05-23T15:29:13;18.60;12.50
12847;DHT22;6492;48.128;8.320;2023-05-23T15:33:17;18.40;12.10
12847;DHT22;6492;48.128;8.320;2023-05-23T15:37:19;18.20;12.60
12847;DHT22;6492;48.128;8.320;2023-05-23T15:41:22;18.20;11.80
12847;DHT22;6492;48.128;8.320;2023-05-23T15:45:24;18.10;12.00
12847;DHT22;6492;48.128;8.320;2023-05-23T15:49:25;18.10;12.50
12847;DHT22;6492;48.128;8.320;2023-05-23T15:53:27;18.10;12.60
12847;DHT22;6492;48.128;8.320;2023-05-23T15:57:30;18.10;12.30
12847;DHT22;6492;48.128;8.320;2023-05-23T16:01:33;18.10;11.70
12847;DHT22;6492;48.128;8.320;2023-05-23T16:05:35;18.00;11.40
12847;DHT22;6492;48.128;8.320;2023-05-23T16:09:36;18.00;11.70
12847;DHT22;6492;48.128;8.320;2023-05-23T16:13:40;17.90;12.00
12847;DHT22;6492;48.128;8.320;2023-05-23T16:17:42;17.90;11.60
12847;DHT22;6492;48.128;8.320;2023-05-23T16:21:43;17.80;11.30
12847;DHT22;6492;48.128;8.320;2023-05-23T16:25:46;17.70;11.40
12847;DHT22;6492;48.128;8.320;2023-05-23T16:29:49;17.90;10.80
12847;DHT22;6492;48.128;8.320;2023-05-23T16:33:53;17.40;11.10
12847;DHT22;6492;48.128;8.320;2023-05-23T16:37:56;17.30;11.70
12847;DHT22;6492;48.128;8.320;2023-05-23T16:41:58;17.20;12.70
12847;DHT22;6492;48.128;8.320;2023-05-23T16:46:02;17.20;13.20
12847;DHT22;6492;48.128;8.320;2023-05-23T16:50:06;17.20;13.10
12847;DHT22;6492;48.128;8.320;2023-05-23T16:54:17;17.10;12.70
12847;DHT22;6492;48.128;8.320;2023-05-23T16:58:20;16.90;12.60
12847;DHT22;6492;48.128;8.320;2023-05-23T17:02:23;16.70;13.80
12847;DHT22;6492;48.128;8.320;2023-05-23T17:06:26;16.50;14.20
12847;DHT22;6492;48.128;8.320;2023-05-23T17:10:29;16.40;14.50
12847;DHT22;6492;48.128;8.320;2023-05-23T17:14:31;16.30;15.80
12847;DHT22;6492;48.128;8.320;2023-05-23T17:18:35;16.20;15.30
12847;DHT22;6492;48.128;8.320;2023-05-23T17:22:37;16.10;15.20
12847;DHT22;6492;48.128;8.320;2023-05-23T17:26:41;16.00;15.50
12847;DHT22;6492;48.128;8.320;2023-05-23T17:31:11;15.80;16.10
12847;DHT22;6492;48.128;8.320;2023-05-23T17:35:14;15.80;15.80
12847;DHT22;6492;48.128;8.320;2023-05-23T17:39:23;15.70;16.70
12847;DHT22;6492;48.128;8.320;2023-05-23T17:43:25;15.60;16.80
12847;DHT22;6492;48.128;8.320;2023-05-23T17:47:27;15.50;17.00
12847;DHT22;6492;48.128;8.320;2023-05-23T17:51:31;15.40;17.30
12847;DHT22;6492;48.128;8.320;2023-05-23T17:55:33;15.30;17.30
12847;DHT22;6492;48.128;8.320;2023-05-23T17:59:35;15.20;17.40
12847;DHT22;6492;48.128;8.320;2023-05-23T18:03:37;15.10;17.70
12847;DHT22;6492;48.128;8.320;2023-05-23T18:07:40;15.10;17.90
12847;DHT22;6492;48.128;8.320;2023-05-23T18:11:42;15.00;17.60
12847;DHT22;6492;48.128;8.320;2023-05-23T18:15:44;14.90;17.90
12847;DHT22;6492;48.128;8.320;2023-05-23T18:19:46;14.90;17.40
12847;DHT22;6492;48.128;8.320;2023-05-23T18:23:52;14.60;17.70
12847;DHT22;6492;48.128;8.320;2023-05-23T18:27:55;14.50;18.30
12847;DHT22;6492;48.128;8.320;2023-05-23T18:32:01;14.30;18.70
12847;DHT22;6492;48.128;8.320;2023-05-23T18:36:03;14.30;18.60
12847;DHT22;6492;48.128;8.320;2023-05-23T18:40:08;14.20;19.40
12847;DHT22;6492;48.128;8.320;2023-05-23T18:44:33;14.10;20.00
12847;DHT22;6492;48.128;8.320;2023-05-23T18:48:35;14.00;19.90
12847;DHT22;6492;48.128;8.320;2023-05-23T18:52:37;13.90;20.70
12847;DHT22;6492;48.128;8.320;2023-05-23T18:56:40;13.90;21.70
12847;DHT22;6492;48.128;8.320;2023-05-23T19:01:01;13.80;23.10
12847;DHT22;6492;48.128;8.320;2023-05-23T19:05:04;13.70;23.20
12847;DHT22;6492;48.128;8.320;2023-05-23T19:09:06;13.60;23.10
12847;DHT22;6492;48.128;8.320;2023-05-23T19:13:12;13.50;23.70
12847;DHT22;6492;48.128;8.320;2023-05-23T19:17:14;13.40;24.30
12847;DHT22;6492;48.128;8.320;2023-05-23T19:21:23;13.40;24.40
12847;DHT22;6492;48.128;8.320;2023-05-23T19:25:27;13.20;24.90
12847;DHT22;6492;48.128;8.320;2023-05-23T19:29:34;13.10;25.80
12847;DHT22;6492;48.128;8.320;2023-05-23T19:33:37;13.00;26.60
12847;DHT22;6492;48.128;8.320;2023-05-23T19:37:39;12.90;27.50
12847;DHT22;6492;48.128;8.320;2023-05-23T19:41:41;12.70;28.40
12847;DHT22;6492;48.128;8.320;2023-05-23T19:45:44;12.60;29.00
12847;DHT22;6492;48.128;8.320;2023-05-23T19:49:46;12.50;29.80
12847;DHT22;6492;48.128;8.320;2023-05-23T19:53:51;12.40;30.30
12847;DHT22;6492;48.128;8.320;2023-05-23T19:57:53;12.20;32.00
12847;DHT22;6492;48.128;8.320;2023-05-23T20:01:57;12.10;33.30
12847;DHT22;6492;48.128;8.320;2023-05-23T20:05:59;11.90;34.80
12847;DHT22;6492;48.128;8.320;2023-05-23T20:10:01;11.70;36.00
12847;DHT22;6492;48.128;8.320;2023-05-23T20:14:05;11.60;37.80
12847;DHT22;6492;48.128;8.320;2023-05-23T20:18:08;11.50;38.90
12847;DHT22;6492;48.128;8.320;2023-05-23T20:22:11;11.40;39.70
12847;DHT22;6492;48.128;8.320;2023-05-23T20:26:12;11.30;41.80
12847;DHT22;6492;48.128;8.320;2023-05-23T20:30:14;11.20;41.90
12847;DHT22;6492;48.128;8.320;2023-05-23T20:34:28;11.20;43.10
12847;DHT22;6492;48.128;8.320;2023-05-23T20:38:30;11.20;43.70
12847;DHT22;6492;48.128;8.320;2023-05-23T20:42:33;11.30;44.50
12847;DHT22;6492;48.128;8.320;2023-05-23T20:46:36;11.40;44.10
12847;DHT22;6492;48.128;8.320;2023-05-23T20:50:40;11.40;44.00
12847;DHT22;6492;48.128;8.320;2023-05-23T20:54:43;11.50;43.80
12847;DHT22;6492;48.128;8.320;2023-05-23T20:58:47;11.50;44.00
12847;DHT22;6492;48.128;8.320;2023-05-23T21:02:49;11.60;44.00
12847;DHT22;6492;48.128;8.320;2023-05-23T21:06:52;11.60;44.20
12847;DHT22;6492;48.128;8.320;2023-05-23T21:10:54;11.60;44.20
12847;DHT22;6492;48.128;8.320;2023-05-23T21:14:55;11.70;44.40
12847;DHT22;6492;48.128;8.320;2023-05-23T21:18:57;11.70;44.30
12847;DHT22;6492;48.128;8.320;2023-05-23T21:23:01;11.70;44.10
12847;DHT22;6492;48.128;8.320;2023-05-23T21:27:03;11.70;44.20
12847;DHT22;6492;48.128;8.320;2023-05-23T21:31:07;11.70;44.00
12847;DHT22;6492;48.128;8.320;2023-05-23T21:35:09;11.70;44.00
12847;DHT22;6492;48.128;8.320;2023-05-23T21:39:12;11.60;44.50
12847;DHT22;6492;48.128;8.320;2023-05-23T21:43:14;11.60;44.90
12847;DHT22;6492;48.128;8.320;2023-05-23T21:47:16;11.60;45.40
12847;DHT22;6492;48.128;8.320;2023-05-23T21:51:17;11.60;45.90
12847;DHT22;6492;48.128;8.320;2023-05-23T21:55:21;11.60;45.60
12847;DHT22;6492;48.128;8.320;2023-05-23T21:59:23;11.80;45.80
12847;DHT22;6492;48.128;8.320;2023-05-23T22:03:25;11.50;46.60
12847;DHT22;6492;48.128;8.320;2023-05-23T22:07:27;11.40;46.80
12847;DHT22;6492;48.128;8.320;2023-05-23T22:11:30;11.40;47.20
12847;DHT22;6492;48.128;8.320;2023-05-23T22:15:33;11.40;47.10
12847;DHT22;6492;48.128;8.320;2023-05-23T22:19:36;11.30;47.60
12847;DHT22;6492;48.128;8.320;2023-05-23T22:23:38;11.30;47.50
12847;DHT22;6492;48.128;8.320;2023-05-23T22:27:41;11.20;47.50
12847;DHT22;6492;48.128;8.320;2023-05-23T22:31:42;11.20;48.40
12847;DHT22;6492;48.128;8.320;2023-05-23T22:35:46;11.10;49.40
12847;DHT22;6492;48.128;8.320;2023-05-23T22:39:48;11.10;49.60
12847;DHT22;6492;48.128;8.320;2023-05-23T22:43:51;11.10;50.50
12847;DHT22;6492;48.128;8.320;2023-05-23T22:47:52;11.10;50.20
12847;DHT22;6492;48.128;8.320;2023-05-23T22:51:54;11.10;50.10
12847;DHT22;6492;48.128;8.320;2023-05-23T22:55:57;11.00;50.10
12847;DHT22;6492;48.128;8.320;2023-05-23T23:00:00;11.00;49.80
12847;DHT22;6492;48.128;8.320;2023-05-23T23:04:01;10.90;49.40
12847;DHT22;6492;48.128;8.320;2023-05-23T23:08:03;10.90;49.20
12847;DHT22;6492;48.128;8.320;2023-05-23T23:12:05;10.90;49.10
12847;DHT22;6492;48.128;8.320;2023-05-23T23:16:08;10.80;49.10
12847;DHT22;6492;48.128;8.320;2023-05-23T23:20:11;10.80;49.30
12847;DHT22;6492;48.128;8.320;2023-05-23T23:24:13;10.70;49.10
12847;DHT22;6492;48.128;8.320;2023-05-23T23:28:15;10.70;49.90
12847;DHT22;6492;48.128;8.320;2023-05-23T23:32:18;10.70;49.90
12847;DHT22;6492;48.128;8.320;2023-05-23T23:36:20;10.60;50.30
12847;DHT22;6492;48.128;8.320;2023-05-23T23:40:21;10.60;50.80
12847;DHT22;6492;48.128;8.320;2023-05-23T23:44:23;10.60;51.00
12847;DHT22;6492;48.128;8.320;2023-05-23T23:48:26;10.60;51.10
12847;DHT22;6492;48.128;8.320;2023-05-23T23:52:44;10.60;51.60
12847;DHT22;6492;48.128;8.320;2023-05-23T23:56:45;10.60;51.60
